sensor_id;sensor_type;location;lat;lon;timestamp;pressure;altitude;pressure_sealevel;temperature;humidity
65659;BME280;60181;53.258;6.932;2023-03-13T00:02:30;100220.70;;;13.33;63.20
65659;BME280;60181;53.258;6.932;2023-03-13T00:06:35;100209.84;;;13.33;61.29
65659;BME280;60181;53.258;6.932;2023-03-13T00:10:39;100198.30;;;13.31;61.54
65659;BME280;60181;53.258;6.932;2023-03-13T00:14:42;100189.07;;;13.29;61.72
65659;BME280;60181;53.258;6.932;2023-03-13T00:18:47;100179.37;;;13.28;61.78
65659;BME280;60181;53.258;6.932;2023-03-13T00:22:50;100170.07;;;13.26;61.79
65659;BME280;60181;53.258;6.932;2023-03-13T00:26:54;100160.61;;;13.25;61.93
65659;BME280;60181;53.258;6.932;2023-03-13T00:31:02;100152.61;;;13.24;62.04
65659;BME280;60181;53.258;6.932;2023-03-13T00:35:03;100142.50;;;13.23;62.18
65659;BME280;60181;53.258;6.932;2023-03-13T00:39:06;100131.78;;;13.22;62.21
65659;BME280;60181;53.258;6.932;2023-03-13T00:43:10;100122.33;;;13.22;63.21
65659;BME280;60181;53.258;6.932;2023-03-13T00:47:14;100111.75;;;13.25;61.84
65659;BME280;60181;53.258;6.932;2023-03-13T00:51:19;100100.27;;;13.32;61.38
65659;BME280;60181;53.258;6.932;2023-03-13T00:55:22;100089.28;;;13.39;61.59
65659;BME280;60181;53.258;6.932;2023-03-13T00:59:26;100078.74;;;13.44;61.56
65659;BME280;60181;53.258;6.932;2023-03-13T01:03:30;100067.31;;;13.45;62.54
65659;BME280;60181;53.258;6.932;2023-03-13T01:07:34;100056.76;;;13.44;62.62
65659;BME280;60181;53.258;6.932;2023-03-13T01:11:39;100045.74;;;13.43;62.69
65659;BME280;60181;53.258;6.932;2023-03-13T01:15:42;100034.97;;;13.42;62.71
65659;BME280;60181;53.258;6.932;2023-03-13T01:19:46;100024.36;;;13.41;62.92
65659;BME280;60181;53.258;6.932;2023-03-13T01:23:51;100015.01;;;13.39;63.04
65659;BME280;60181;53.258;6.932;2023-03-13T01:27:54;100005.47;;;13.37;63.16
65659;BME280;60181;53.258;6.932;2023-03-13T01:31:58;99996.15;;;13.34;63.54
65659;BME280;60181;53.258;6.932;2023-03-13T01:36:03;99986.52;;;13.31;63.65
65659;BME280;60181;53.258;6.932;2023-03-13T01:40:06;99977.37;;;13.29;63.59
65659;BME280;60181;53.258;6.932;2023-03-13T01:44:21;99968.39;;;13.27;63.62
65659;BME280;60181;53.258;6.932;2023-03-13T01:48:14;99959.28;;;13.25;63.75
65659;BME280;60181;53.258;6.932;2023-03-13T01:52:19;99950.12;;;13.24;63.77
65659;BME280;60181;53.258;6.932;2023-03-13T01:56:30;99939.84;;;13.22;63.82
65659;BME280;60181;53.258;6.932;2023-03-13T02:00:28;99929.42;;;13.22;63.79
65659;BME280;60181;53.258;6.932;2023-03-13T02:04:31;99917.31;;;13.21;63.82
65659;BME280;60181;53.258;6.932;2023-03-13T02:08:39;99902.91;;;13.20;63.84
65659;BME280;60181;53.258;6.932;2023-03-13T02:12:38;99888.95;;;13.22;63.41
65659;BME280;60181;53.258;6.932;2023-03-13T02:16:42;99875.30;;;13.25;63.36
65659;BME280;60181;53.258;6.932;2023-03-13T02:20:46;99860.27;;;13.29;62.83
65659;BME280;60181;53.258;6.932;2023-03-13T02:24:55;99845.14;;;13.30;63.59
65659;BME280;60181;53.258;6.932;2023-03-13T02:28:54;99829.83;;;13.31;63.23
65659;BME280;60181;53.258;6.932;2023-03-13T02:32:58;99815.94;;;13.37;63.25
65659;BME280;60181;53.258;6.932;2023-03-13T02:37:02;99802.06;;;13.40;63.19
65659;BME280;60181;53.258;6.932;2023-03-13T02:41:06;99788.47;;;13.38;63.60
65659;BME280;60181;53.258;6.932;2023-03-13T02:45:12;99775.70;;;13.35;63.84
65659;BME280;60181;53.258;6.932;2023-03-13T02:49:21;99764.22;;;13.32;63.88
65659;BME280;60181;53.258;6.932;2023-03-13T02:53:18;99752.44;;;13.29;63.95
65659;BME280;60181;53.258;6.932;2023-03-13T02:57:22;99739.37;;;13.26;64.11
65659;BME280;60181;53.258;6.932;2023-03-13T03:01:26;99727.45;;;13.23;64.18
65659;BME280;60181;53.258;6.932;2023-03-13T03:05:30;99715.03;;;13.20;64.24
65659;BME280;60181;53.258;6.932;2023-03-13T03:09:34;99704.35;;;13.18;64.19
65659;BME280;60181;53.258;6.932;2023-03-13T03:13:38;99692.10;;;13.17;64.23
65659;BME280;60181;53.258;6.932;2023-03-13T03:17:42;99680.25;;;13.16;64.20
65659;BME280;60181;53.258;6.932;2023-03-13T03:21:46;99667.02;;;13.14;64.34
65659;BME280;60181;53.258;6.932;2023-03-13T03:25:50;99654.50;;;13.13;64.45
65659;BME280;60181;53.258;6.932;2023-03-13T03:29:54;99643.84;;;13.12;64.51
65659;BME280;60181;53.258;6.932;2023-03-13T03:33:58;99630.67;;;13.10;64.71
65659;BME280;60181;53.258;6.932;2023-03-13T03:38:02;99620.33;;;13.10;64.49
65659;BME280;60181;53.258;6.932;2023-03-13T03:42:06;99609.47;;;13.10;64.45
65659;BME280;60181;53.258;6.932;2023-03-13T03:46:10;99595.24;;;13.09;64.65
65659;BME280;60181;53.258;6.932;2023-03-13T03:50:14;99585.46;;;13.09;64.57
65659;BME280;60181;53.258;6.932;2023-03-13T03:54:18;99575.84;;;13.09;64.76
65659;BME280;60181;53.258;6.932;2023-03-13T03:58:22;99567.70;;;13.09;64.86
65659;BME280;60181;53.258;6.932;2023-03-13T04:02:26;99559.91;;;13.08;64.91
65659;BME280;60181;53.258;6.932;2023-03-13T04:06:30;99551.42;;;13.08;64.95
65659;BME280;60181;53.258;6.932;2023-03-13T04:10:34;99544.86;;;13.08;65.04
65659;BME280;60181;53.258;6.932;2023-03-13T04:14:38;99537.95;;;13.08;65.20
65659;BME280;60181;53.258;6.932;2023-03-13T04:18:42;99530.88;;;13.08;65.23
65659;BME280;60181;53.258;6.932;2023-03-13T04:22:46;99524.05;;;13.08;65.19
65659;BME280;60181;53.258;6.932;2023-03-13T04:26:50;99518.45;;;13.08;65.33
65659;BME280;60181;53.258;6.932;2023-03-13T04:30:54;99512.45;;;13.08;65.39
65659;BME280;60181;53.258;6.932;2023-03-13T04:34:58;99506.71;;;13.09;65.43
65659;BME280;60181;53.258;6.932;2023-03-13T04:39:02;99497.01;;;13.09;65.61
65659;BME280;60181;53.258;6.932;2023-03-13T04:43:06;99489.59;;;13.09;65.65
65659;BME280;60181;53.258;6.932;2023-03-13T04:47:10;99482.26;;;13.10;65.34
65659;BME280;60181;53.258;6.932;2023-03-13T04:51:14;99474.50;;;13.23;62.79
65659;BME280;60181;53.258;6.932;2023-03-13T04:55:18;99468.38;;;13.33;62.69
65659;BME280;60181;53.258;6.932;2023-03-13T04:59:22;99462.84;;;13.38;62.54
65659;BME280;60181;53.258;6.932;2023-03-13T05:03:26;99456.95;;;13.41;62.42
65659;BME280;60181;53.258;6.932;2023-03-13T05:07:30;99450.76;;;13.43;62.37
65659;BME280;60181;53.258;6.932;2023-03-13T05:11:34;99445.74;;;13.45;62.24
65659;BME280;60181;53.258;6.932;2023-03-13T05:15:38;99440.06;;;13.47;62.15
65659;BME280;60181;53.258;6.932;2023-03-13T05:19:42;99435.46;;;13.48;62.07
65659;BME280;60181;53.258;6.932;2023-03-13T05:23:46;99429.51;;;13.48;61.97
65659;BME280;60181;53.258;6.932;2023-03-13T05:27:50;99423.33;;;13.48;61.89
65659;BME280;60181;53.258;6.932;2023-03-13T05:31:54;99416.77;;;13.49;61.79
65659;BME280;60181;53.258;6.932;2023-03-13T05:35:58;99411.08;;;13.49;61.72
65659;BME280;60181;53.258;6.932;2023-03-13T05:40:02;99404.24;;;13.49;61.66
65659;BME280;60181;53.258;6.932;2023-03-13T05:44:06;99399.98;;;13.50;61.57
65659;BME280;60181;53.258;6.932;2023-03-13T05:48:10;99394.38;;;13.50;61.48
65659;BME280;60181;53.258;6.932;2023-03-13T05:52:14;99386.89;;;13.50;61.44
65659;BME280;60181;53.258;6.932;2023-03-13T05:56:18;99379.89;;;13.50;61.44
65659;BME280;60181;53.258;6.932;2023-03-13T06:00:22;99373.32;;;13.50;61.32
65659;BME280;60181;53.258;6.932;2023-03-13T06:04:26;99366.55;;;13.51;62.21
65659;BME280;60181;53.258;6.932;2023-03-13T06:08:30;99358.96;;;13.58;61.20
65659;BME280;60181;53.258;6.932;2023-03-13T06:12:34;99354.32;;;13.62;61.26
65659;BME280;60181;53.258;6.932;2023-03-13T06:16:38;99352.80;;;13.66;61.95
65659;BME280;60181;53.258;6.932;2023-03-13T06:20:42;99349.34;;;13.69;62.29
65659;BME280;60181;53.258;6.932;2023-03-13T06:24:46;99344.55;;;13.69;62.03
65659;BME280;60181;53.258;6.932;2023-03-13T06:28:50;99343.31;;;13.68;61.79
65659;BME280;60181;53.258;6.932;2023-03-13T06:32:54;99342.00;;;13.67;61.74
65659;BME280;60181;53.258;6.932;2023-03-13T06:36:58;99342.86;;;13.66;61.87
65659;BME280;60181;53.258;6.932;2023-03-13T06:41:02;99342.94;;;13.65;61.94
65659;BME280;60181;53.258;6.932;2023-03-13T06:45:06;99343.92;;;13.65;61.76
65659;BME280;60181;53.258;6.932;2023-03-13T06:49:10;99340.24;;;13.64;61.85
65659;BME280;60181;53.258;6.932;2023-03-13T06:53:14;99335.53;;;13.64;62.04
65659;BME280;60181;53.258;6.932;2023-03-13T06:57:18;99331.44;;;13.63;61.95
65659;BME280;60181;53.258;6.932;2023-03-13T07:01:24;99327.91;;;13.63;61.75
65659;BME280;60181;53.258;6.932;2023-03-13T07:05:26;99324.95;;;13.63;62.03
65659;BME280;60181;53.258;6.932;2023-03-13T07:09:30;99321.15;;;13.63;61.98
65659;BME280;60181;53.258;6.932;2023-03-13T07:13:34;99317.78;;;13.63;62.05
65659;BME280;60181;53.258;6.932;2023-03-13T07:17:38;99314.23;;;13.64;61.91
65659;BME280;60181;53.258;6.932;2023-03-13T07:21:42;99313.97;;;13.64;61.99
65659;BME280;60181;53.258;6.932;2023-03-13T07:25:55;99314.97;;;13.64;61.87
65659;BME280;60181;53.258;6.932;2023-03-13T07:29:50;99309.29;;;13.65;61.84
65659;BME280;60181;53.258;6.932;2023-03-13T07:33:54;99308.48;;;13.65;62.05
65659;BME280;60181;53.258;6.932;2023-03-13T07:37:58;99307.40;;;13.65;62.08
65659;BME280;60181;53.258;6.932;2023-03-13T07:42:02;99307.05;;;13.66;62.12
65659;BME280;60181;53.258;6.932;2023-03-13T07:46:06;99306.08;;;13.66;61.92
65659;BME280;60181;53.258;6.932;2023-03-13T07:50:10;99303.52;;;13.67;62.00
65659;BME280;60181;53.258;6.932;2023-03-13T07:54:14;99305.74;;;13.67;62.04
65659;BME280;60181;53.258;6.932;2023-03-13T07:58:18;99307.20;;;13.68;61.94
65659;BME280;60181;53.258;6.932;2023-03-13T08:02:22;99309.84;;;13.69;62.60
65659;BME280;60181;53.258;6.932;2023-03-13T08:06:26;99310.41;;;13.70;62.22
65659;BME280;60181;53.258;6.932;2023-03-13T08:10:30;99311.45;;;13.71;62.00
65659;BME280;60181;53.258;6.932;2023-03-13T08:14:34;99313.92;;;13.71;62.02
65659;BME280;60181;53.258;6.932;2023-03-13T08:18:39;99316.33;;;13.71;62.04
65659;BME280;60181;53.258;6.932;2023-03-13T08:22:42;99316.40;;;13.71;61.97
65659;BME280;60181;53.258;6.932;2023-03-13T08:26:46;99317.79;;;13.71;61.99
65659;BME280;60181;53.258;6.932;2023-03-13T08:30:50;99317.79;;;13.71;61.87
65659;BME280;60181;53.258;6.932;2023-03-13T08:34:54;99316.97;;;13.72;61.78
65659;BME280;60181;53.258;6.932;2023-03-13T08:38:59;99315.64;;;13.72;61.73
65659;BME280;60181;53.258;6.932;2023-03-13T08:43:03;99313.09;;;13.74;61.55
65659;BME280;60181;53.258;6.932;2023-03-13T08:47:06;99308.92;;;13.77;61.31
65659;BME280;60181;53.258;6.932;2023-03-13T08:51:10;99301.01;;;13.88;59.75
65659;BME280;60181;53.258;6.932;2023-03-13T08:55:14;99296.91;;;14.05;59.01
65659;BME280;60181;53.258;6.932;2023-03-13T08:59:18;99291.99;;;14.26;58.59
65659;BME280;60181;53.258;6.932;2023-03-13T09:03:21;99291.52;;;14.46;58.30
65659;BME280;60181;53.258;6.932;2023-03-13T09:07:26;99289.70;;;14.60;58.82
65659;BME280;60181;53.258;6.932;2023-03-13T09:11:30;99287.95;;;14.70;59.15
65659;BME280;60181;53.258;6.932;2023-03-13T09:15:42;99288.25;;;14.79;59.19
65659;BME280;60181;53.258;6.932;2023-03-13T09:19:38;99287.48;;;14.86;58.99
65659;BME280;60181;53.258;6.932;2023-03-13T09:23:41;99291.77;;;14.94;59.16
65659;BME280;60181;53.258;6.932;2023-03-13T09:27:45;99292.81;;;14.95;59.71
65659;BME280;60181;53.258;6.932;2023-03-13T09:31:49;99294.51;;;14.93;60.42
65659;BME280;60181;53.258;6.932;2023-03-13T09:35:53;99297.06;;;14.87;60.47
65659;BME280;60181;53.258;6.932;2023-03-13T09:39:58;99300.09;;;14.81;60.38
65659;BME280;60181;53.258;6.932;2023-03-13T09:48:07;99302.61;;;14.72;60.59
65659;BME280;60181;53.258;6.932;2023-03-13T09:52:17;99303.55;;;14.68;60.60
65659;BME280;60181;53.258;6.932;2023-03-13T09:56:16;99301.53;;;14.64;60.69
65659;BME280;60181;53.258;6.932;2023-03-13T10:00:24;99300.06;;;14.61;60.59
65659;BME280;60181;53.258;6.932;2023-03-13T10:04:26;99297.38;;;14.58;60.55
65659;BME280;60181;53.258;6.932;2023-03-13T10:08:26;99296.66;;;14.56;60.78
65659;BME280;60181;53.258;6.932;2023-03-13T10:12:31;99294.05;;;14.54;60.70
65659;BME280;60181;53.258;6.932;2023-03-13T10:16:37;99290.92;;;14.56;60.33
65659;BME280;60181;53.258;6.932;2023-03-13T10:20:38;99286.75;;;14.59;60.26
65659;BME280;60181;53.258;6.932;2023-03-13T10:28:46;99279.67;;;14.68;60.20
65659;BME280;60181;53.258;6.932;2023-03-13T10:32:50;99276.58;;;14.71;60.05
65659;BME280;60181;53.258;6.932;2023-03-13T10:36:55;99273.88;;;14.74;60.24
65659;BME280;60181;53.258;6.932;2023-03-13T10:41:01;99272.21;;;14.76;60.12
65659;BME280;60181;53.258;6.932;2023-03-13T10:45:03;99266.09;;;14.78;60.21
65659;BME280;60181;53.258;6.932;2023-03-13T10:49:12;99265.16;;;14.80;60.13
65659;BME280;60181;53.258;6.932;2023-03-13T11:01:24;99256.84;;;14.85;59.95
65659;BME280;60181;53.258;6.932;2023-03-13T11:05:28;99256.59;;;14.87;59.99
65659;BME280;60181;53.258;6.932;2023-03-13T11:09:25;99256.40;;;14.88;59.95
65659;BME280;60181;53.258;6.932;2023-03-13T11:13:32;99254.32;;;14.89;60.00
65659;BME280;60181;53.258;6.932;2023-03-13T11:17:38;99253.31;;;14.91;59.97
65659;BME280;60181;53.258;6.932;2023-03-13T11:25:49;99250.66;;;14.92;60.03
65659;BME280;60181;53.258;6.932;2023-03-13T11:37:54;99245.06;;;14.92;60.26
65659;BME280;60181;53.258;6.932;2023-03-13T11:50:07;99236.25;;;14.90;60.65
65659;BME280;60181;53.258;6.932;2023-03-13T12:02:20;99236.85;;;15.00;60.90
65659;BME280;60181;53.258;6.932;2023-03-13T12:10:27;99230.45;;;14.97;61.11
65659;BME280;60181;53.258;6.932;2023-03-13T12:14:33;99225.38;;;14.96;61.07
65659;BME280;60181;53.258;6.932;2023-03-13T12:18:34;99220.86;;;14.94;61.06
65659;BME280;60181;53.258;6.932;2023-03-13T12:22:40;99218.50;;;14.93;61.42
65659;BME280;60181;53.258;6.932;2023-03-13T12:26:43;99215.45;;;14.92;61.14
65659;BME280;60181;53.258;6.932;2023-03-13T12:30:47;99210.83;;;14.92;60.97
65659;BME280;60181;53.258;6.932;2023-03-13T12:39:02;99199.13;;;14.92;60.93
65659;BME280;60181;53.258;6.932;2023-03-13T12:43:01;99192.05;;;14.92;60.93
65659;BME280;60181;53.258;6.932;2023-03-13T12:47:09;99188.16;;;14.93;60.85
65659;BME280;60181;53.258;6.932;2023-03-13T12:51:08;99184.11;;;14.93;60.81
65659;BME280;60181;53.258;6.932;2023-03-13T12:55:19;99181.97;;;14.93;60.70
65659;BME280;60181;53.258;6.932;2023-03-13T12:59:15;99178.89;;;14.94;60.75
65659;BME280;60181;53.258;6.932;2023-03-13T13:07:31;99166.49;;;14.96;60.46
65659;BME280;60181;53.258;6.932;2023-03-13T13:15:29;99157.31;;;14.99;60.41
65659;BME280;60181;53.258;6.932;2023-03-13T13:19:43;99149.94;;;15.00;60.34
65659;BME280;60181;53.258;6.932;2023-03-13T13:23:41;99146.89;;;15.01;60.51
65659;BME280;60181;53.258;6.932;2023-03-13T13:27:45;99146.98;;;15.00;60.59
65659;BME280;60181;53.258;6.932;2023-03-13T13:39:53;99135.27;;;15.00;60.64
65659;BME280;60181;53.258;6.932;2023-03-13T13:56:32;99126.70;;;14.99;60.65
65659;BME280;60181;53.258;6.932;2023-03-13T14:00:23;99123.74;;;14.99;60.54
65659;BME280;60181;53.258;6.932;2023-03-13T14:04:26;99120.54;;;14.99;60.85
65659;BME280;60181;53.258;6.932;2023-03-13T14:08:25;99116.83;;;15.02;60.57
65659;BME280;60181;53.258;6.932;2023-03-13T14:12:32;99114.69;;;15.04;60.44
65659;BME280;60181;53.258;6.932;2023-03-13T14:16:29;99112.78;;;15.04;60.54
65659;BME280;60181;53.258;6.932;2023-03-13T14:20:36;99113.19;;;15.05;60.65
65659;BME280;60181;53.258;6.932;2023-03-13T14:24:37;99110.72;;;15.04;60.67
65659;BME280;60181;53.258;6.932;2023-03-13T14:28:42;99110.99;;;15.03;60.53
65659;BME280;60181;53.258;6.932;2023-03-13T14:32:45;99112.86;;;15.03;60.53
65659;BME280;60181;53.258;6.932;2023-03-13T14:36:50;99108.86;;;15.02;60.51
65659;BME280;60181;53.258;6.932;2023-03-13T14:40:53;99108.09;;;15.02;60.51
65659;BME280;60181;53.258;6.932;2023-03-13T14:44:57;99108.54;;;15.01;60.47
65659;BME280;60181;53.258;6.932;2023-03-13T14:49:05;99110.52;;;15.01;60.57
65659;BME280;60181;53.258;6.932;2023-03-13T14:53:11;99109.95;;;15.01;60.41
65659;BME280;60181;53.258;6.932;2023-03-13T14:57:13;99109.78;;;15.01;60.51
65659;BME280;60181;53.258;6.932;2023-03-13T15:01:24;99106.25;;;15.00;60.56
65659;BME280;60181;53.258;6.932;2023-03-13T15:05:32;99107.64;;;15.01;60.56
65659;BME280;60181;53.258;6.932;2023-03-13T15:09:21;99103.85;;;15.01;60.46
65659;BME280;60181;53.258;6.932;2023-03-13T15:13:34;99106.32;;;15.01;60.34
65659;BME280;60181;53.258;6.932;2023-03-13T15:17:29;99103.09;;;15.01;60.40
65659;BME280;60181;53.258;6.932;2023-03-13T15:21:33;99101.54;;;15.01;60.44
65659;BME280;60181;53.258;6.932;2023-03-13T15:25:37;99098.66;;;15.00;60.41
65659;BME280;60181;53.258;6.932;2023-03-13T15:29:41;99097.17;;;15.00;60.56
65659;BME280;60181;53.258;6.932;2023-03-13T15:33:45;99095.04;;;14.99;60.40
65659;BME280;60181;53.258;6.932;2023-03-13T15:37:49;99090.92;;;14.99;60.57
65659;BME280;60181;53.258;6.932;2023-03-13T15:41:53;99086.89;;;14.99;60.41
65659;BME280;60181;53.258;6.932;2023-03-13T15:45:57;99086.02;;;14.98;61.05
65659;BME280;60181;53.258;6.932;2023-03-13T15:50:01;99082.39;;;14.97;60.95
65659;BME280;60181;53.258;6.932;2023-03-13T15:54:05;99078.76;;;14.97;60.79
65659;BME280;60181;53.258;6.932;2023-03-13T15:58:09;99075.48;;;14.97;60.87
65659;BME280;60181;53.258;6.932;2023-03-13T16:02:14;99074.02;;;14.96;60.88
65659;BME280;60181;53.258;6.932;2023-03-13T16:06:18;99072.22;;;14.95;60.97
65659;BME280;60181;53.258;6.932;2023-03-13T16:10:23;99069.83;;;14.94;60.91
65659;BME280;60181;53.258;6.932;2023-03-13T16:14:25;99066.30;;;14.94;60.82
65659;BME280;60181;53.258;6.932;2023-03-13T16:18:29;99063.00;;;14.94;60.73
65659;BME280;60181;53.258;6.932;2023-03-13T16:22:33;99061.17;;;14.93;60.89
65659;BME280;60181;53.258;6.932;2023-03-13T16:26:37;99058.23;;;14.93;60.82
65659;BME280;60181;53.258;6.932;2023-03-13T16:30:41;99056.02;;;14.92;60.84
65659;BME280;60181;53.258;6.932;2023-03-13T16:34:45;99053.82;;;14.91;60.87
65659;BME280;60181;53.258;6.932;2023-03-13T16:38:49;99050.37;;;14.90;60.96
65659;BME280;60181;53.258;6.932;2023-03-13T16:42:53;99048.08;;;14.89;60.97
65659;BME280;60181;53.258;6.932;2023-03-13T16:46:57;99045.56;;;14.88;61.01
65659;BME280;60181;53.258;6.932;2023-03-13T16:51:01;99043.92;;;14.87;61.00
65659;BME280;60181;53.258;6.932;2023-03-13T16:55:05;99041.36;;;14.85;61.06
65659;BME280;60181;53.258;6.932;2023-03-13T16:59:10;99040.39;;;14.84;61.16
65659;BME280;60181;53.258;6.932;2023-03-13T17:03:13;99036.15;;;14.83;61.02
65659;BME280;60181;53.258;6.932;2023-03-13T17:07:21;99035.02;;;14.82;61.08
65659;BME280;60181;53.258;6.932;2023-03-13T17:11:21;99030.14;;;14.81;61.07
65659;BME280;60181;53.258;6.932;2023-03-13T17:15:25;99029.44;;;14.80;61.19
65659;BME280;60181;53.258;6.932;2023-03-13T17:19:29;99027.90;;;14.79;61.14
65659;BME280;60181;53.258;6.932;2023-03-13T17:23:33;99027.00;;;14.78;61.23
65659;BME280;60181;53.258;6.932;2023-03-13T17:27:37;99023.88;;;14.77;61.15
65659;BME280;60181;53.258;6.932;2023-03-13T17:31:41;99022.64;;;14.76;61.21
65659;BME280;60181;53.258;6.932;2023-03-13T17:35:45;99019.80;;;14.76;61.17
65659;BME280;60181;53.258;6.932;2023-03-13T17:39:49;99017.08;;;14.75;61.20
65659;BME280;60181;53.258;6.932;2023-03-13T17:43:53;99014.20;;;14.74;61.18
65659;BME280;60181;53.258;6.932;2023-03-13T17:47:57;99010.69;;;14.73;61.21
65659;BME280;60181;53.258;6.932;2023-03-13T17:52:01;99010.02;;;14.73;61.37
65659;BME280;60181;53.258;6.932;2023-03-13T17:56:11;99009.79;;;14.72;61.72
65659;BME280;60181;53.258;6.932;2023-03-13T18:00:19;99007.62;;;14.73;61.59
65659;BME280;60181;53.258;6.932;2023-03-13T18:04:13;99004.60;;;14.73;61.46
65659;BME280;60181;53.258;6.932;2023-03-13T18:08:17;99003.50;;;14.73;61.56
65659;BME280;60181;53.258;6.932;2023-03-13T18:12:21;99002.20;;;14.72;61.58
65659;BME280;60181;53.258;6.932;2023-03-13T18:16:29;99000.72;;;14.72;61.63
65659;BME280;60181;53.258;6.932;2023-03-13T18:20:29;99001.07;;;14.71;61.59
65659;BME280;60181;53.258;6.932;2023-03-13T18:24:33;99003.38;;;14.71;61.64
65659;BME280;60181;53.258;6.932;2023-03-13T18:28:37;99004.55;;;14.70;61.61
65659;BME280;60181;53.258;6.932;2023-03-13T18:32:41;99004.57;;;14.70;61.65
65659;BME280;60181;53.258;6.932;2023-03-13T18:36:45;99007.03;;;14.69;61.71
65659;BME280;60181;53.258;6.932;2023-03-13T18:40:49;99010.10;;;14.69;61.61
65659;BME280;60181;53.258;6.932;2023-03-13T18:44:53;99012.50;;;14.69;61.69
65659;BME280;60181;53.258;6.932;2023-03-13T18:48:57;99014.47;;;14.68;61.71
65659;BME280;60181;53.258;6.932;2023-03-13T18:53:01;99014.39;;;14.68;61.67
65659;BME280;60181;53.258;6.932;2023-03-13T18:57:12;99013.50;;;14.68;61.62
65659;BME280;60181;53.258;6.932;2023-03-13T19:01:12;99011.75;;;14.68;61.65
65659;BME280;60181;53.258;6.932;2023-03-13T19:05:13;99008.06;;;14.68;61.68
65659;BME280;60181;53.258;6.932;2023-03-13T19:09:17;99005.10;;;14.68;61.59
65659;BME280;60181;53.258;6.932;2023-03-13T19:13:21;99003.12;;;14.68;61.67
65659;BME280;60181;53.258;6.932;2023-03-13T19:17:25;99001.37;;;14.68;61.71
65659;BME280;60181;53.258;6.932;2023-03-13T19:21:29;99002.34;;;14.69;61.71
65659;BME280;60181;53.258;6.932;2023-03-13T19:25:33;99001.01;;;14.69;61.68
65659;BME280;60181;53.258;6.932;2023-03-13T19:29:37;98997.56;;;14.69;61.73
65659;BME280;60181;53.258;6.932;2023-03-13T19:33:41;98994.09;;;14.69;61.71
65659;BME280;60181;53.258;6.932;2023-03-13T19:37:45;98988.33;;;14.69;62.19
65659;BME280;60181;53.258;6.932;2023-03-13T19:41:49;98984.61;;;14.75;61.96
65659;BME280;60181;53.258;6.932;2023-03-13T19:45:53;98978.05;;;14.77;61.63
65659;BME280;60181;53.258;6.932;2023-03-13T19:49:57;98972.03;;;14.77;61.95
65659;BME280;60181;53.258;6.932;2023-03-13T19:54:01;98964.56;;;14.77;62.14
65659;BME280;60181;53.258;6.932;2023-03-13T19:58:05;98957.00;;;14.76;62.29
65659;BME280;60181;53.258;6.932;2023-03-13T20:02:09;98950.33;;;14.75;62.32
65659;BME280;60181;53.258;6.932;2023-03-13T20:06:22;98944.16;;;14.74;62.31
65659;BME280;60181;53.258;6.932;2023-03-13T20:10:17;98937.02;;;14.73;62.19
65659;BME280;60181;53.258;6.932;2023-03-13T20:14:21;98932.81;;;14.72;62.24
65659;BME280;60181;53.258;6.932;2023-03-13T20:18:25;98928.77;;;14.73;62.50
65659;BME280;60181;53.258;6.932;2023-03-13T20:22:29;98926.75;;;14.79;61.97
65659;BME280;60181;53.258;6.932;2023-03-13T20:26:33;98925.31;;;14.81;61.80
65659;BME280;60181;53.258;6.932;2023-03-13T20:30:37;98924.14;;;14.83;61.89
65659;BME280;60181;53.258;6.932;2023-03-13T20:34:40;98925.89;;;14.82;61.91
65659;BME280;60181;53.258;6.932;2023-03-13T20:38:45;98927.36;;;14.82;61.84
65659;BME280;60181;53.258;6.932;2023-03-13T20:42:48;98929.75;;;14.81;61.90
65659;BME280;60181;53.258;6.932;2023-03-13T20:46:52;98932.67;;;14.80;61.89
65659;BME280;60181;53.258;6.932;2023-03-13T20:50:56;98934.64;;;14.80;61.87
65659;BME280;60181;53.258;6.932;2023-03-13T20:55:01;98936.25;;;14.79;61.88
65659;BME280;60181;53.258;6.932;2023-03-13T20:59:04;98936.66;;;14.78;62.02
65659;BME280;60181;53.258;6.932;2023-03-13T21:03:08;98936.25;;;14.77;62.00
65659;BME280;60181;53.258;6.932;2023-03-13T21:07:12;98935.06;;;14.77;62.00
65659;BME280;60181;53.258;6.932;2023-03-13T21:11:20;98932.74;;;14.76;62.00
65659;BME280;60181;53.258;6.932;2023-03-13T21:15:20;98930.63;;;14.76;62.03
65659;BME280;60181;53.258;6.932;2023-03-13T21:19:24;98928.23;;;14.75;61.99
65659;BME280;60181;53.258;6.932;2023-03-13T21:23:28;98926.59;;;14.74;61.99
65659;BME280;60181;53.258;6.932;2023-03-13T21:27:32;98924.30;;;14.74;62.01
65659;BME280;60181;53.258;6.932;2023-03-13T21:31:36;98922.40;;;14.78;62.10
65659;BME280;60181;53.258;6.932;2023-03-13T21:35:40;98921.03;;;14.81;61.88
65659;BME280;60181;53.258;6.932;2023-03-13T21:39:46;98917.72;;;14.81;62.01
65659;BME280;60181;53.258;6.932;2023-03-13T21:43:49;98912.40;;;14.80;62.35
65659;BME280;60181;53.258;6.932;2023-03-13T21:47:52;98906.74;;;14.79;62.41
65659;BME280;60181;53.258;6.932;2023-03-13T21:51:56;98900.48;;;14.77;62.77
65659;BME280;60181;53.258;6.932;2023-03-13T21:56:00;98896.30;;;14.77;62.23
65659;BME280;60181;53.258;6.932;2023-03-13T22:00:05;98890.81;;;14.71;61.55
65659;BME280;60181;53.258;6.932;2023-03-13T22:04:09;98887.70;;;14.64;61.63
65659;BME280;60181;53.258;6.932;2023-03-13T22:08:12;98884.11;;;14.58;61.37
65659;BME280;60181;53.258;6.932;2023-03-13T22:12:16;98882.01;;;14.52;61.21
65659;BME280;60181;53.258;6.932;2023-03-13T22:16:20;98881.91;;;14.47;61.16
65659;BME280;60181;53.258;6.932;2023-03-13T22:20:24;98882.17;;;14.43;60.96
65659;BME280;60181;53.258;6.932;2023-03-13T22:24:28;98882.56;;;14.39;60.90
65659;BME280;60181;53.258;6.932;2023-03-13T22:28:32;98880.47;;;14.36;60.80
65659;BME280;60181;53.258;6.932;2023-03-13T22:32:36;98877.06;;;14.33;60.69
65659;BME280;60181;53.258;6.932;2023-03-13T22:36:40;98871.81;;;14.31;60.65
65659;BME280;60181;53.258;6.932;2023-03-13T22:40:45;98867.77;;;14.29;60.50
65659;BME280;60181;53.258;6.932;2023-03-13T22:44:48;98863.75;;;14.27;60.43
65659;BME280;60181;53.258;6.932;2023-03-13T22:48:52;98859.74;;;14.26;60.40
65659;BME280;60181;53.258;6.932;2023-03-13T22:52:56;98855.41;;;14.24;60.35